TimeCDT,TemperatureF,Dew PointF,Humidity,Sea Level PressureIn,VisibilityMPH,Wind Direction,Wind SpeedMPH,Gust SpeedMPH,PrecipitationIn,Events,Conditions,WindDirDegrees,DateUTC
12:15 AM,21.2,5.0,50,30.11,10.0,NNW,8.1,17.3,N/A,,Clear,340,2013-03-17 05:15:00
12:35 AM,21.2,3.2,46,30.12,10.0,NNW,8.1,-,N/A,,Clear,330,2013-03-17 05:35:00
12:55 AM,19.4,5.0,54,30.13,10.0,NNW,9.2,-,N/A,,Clear,340,2013-03-17 05:55:00
1:15 AM,19.4,5.0,54,30.15,10.0,North,8.1,-,N/A,,Mostly Cloudy,350,2013-03-17 06:15:00
1:35 AM,19.4,8.6,63,30.16,10.0,NNE,13.8,18.4,N/A,,Overcast,20,2013-03-17 06:35:00
1:55 AM,17.6,5.0,58,30.18,10.0,North,11.5,18.4,N/A,,Mostly Cloudy,10,2013-03-17 06:55:00
2:15 AM,17.6,1.4,49,30.20,10.0,North,10.4,20.7,N/A,,Overcast,10,2013-03-17 07:15:00
2:35 AM,17.6,1.4,49,30.20,10.0,North,9.2,17.3,N/A,,Mostly Cloudy,360,2013-03-17 07:35:00
2:55 AM,15.8,1.4,53,30.22,10.0,North,9.2,-,N/A,,Partly Cloudy,350,2013-03-17 07:55:00
3:15 AM,15.8,1.4,53,30.22,10.0,North,8.1,-,N/A,,Clear,360,2013-03-17 08:15:00
3:35 AM,14.0,3.2,62,30.23,10.0,North,5.8,-,N/A,,Partly Cloudy,10,2013-03-17 08:35:00
3:55 AM,14.0,3.2,62,30.24,10.0,North,6.9,-,N/A,,Partly Cloudy,10,2013-03-17 08:55:00
4:15 AM,12.2,1.4,62,30.24,10.0,NNE,10.4,-,N/A,,Clear,20,2013-03-17 09:15:00
4:35 AM,12.2,-0.4,57,30.25,10.0,NNE,10.4,17.3,N/A,,Scattered Clouds,30,2013-03-17 09:35:00
4:55 AM,12.2,-0.4,57,30.25,10.0,NNE,10.4,-,N/A,,Clear,20,2013-03-17 09:55:00
5:15 AM,10.4,-2.2,57,30.25,10.0,North,5.8,-,N/A,,Clear,10,2013-03-17 10:15:00
5:35 AM,10.4,-2.2,57,30.26,10.0,North,6.9,-,N/A,,Clear,350,2013-03-17 10:35:00
5:55 AM,8.6,-2.2,62,30.26,10.0,North,4.6,-,N/A,,Clear,350,2013-03-17 10:55:00
6:15 AM,8.6,-2.2,62,30.26,10.0,North,5.8,-,N/A,,Clear,350,2013-03-17 11:15:00
6:35 AM,8.6,-2.2,62,30.27,10.0,NNW,5.8,-,N/A,,Clear,340,2013-03-17 11:35:00
6:55 AM,8.6,-4.0,57,30.27,10.0,North,6.9,-,N/A,,Clear,350,2013-03-17 11:55:00
7:15 AM,8.6,-2.2,62,30.27,10.0,North,6.9,-,N/A,,Clear,360,2013-03-17 12:15:00
7:35 AM,8.6,-2.2,62,30.27,10.0,North,6.9,-,N/A,,Clear,350,2013-03-17 12:35:00
7:55 AM,8.6,-2.2,62,30.27,10.0,North,6.9,-,N/A,,Clear,360,2013-03-17 12:55:00
8:15 AM,8.6,-0.4,67,30.28,10.0,North,8.1,-,N/A,,Clear,10,2013-03-17 13:15:00
8:35 AM,10.4,-0.4,62,30.28,10.0,North,10.4,-,N/A,,Clear,10,2013-03-17 13:35:00
8:55 AM,12.2,-0.4,57,30.29,10.0,NNE,8.1,-,N/A,,Clear,20,2013-03-17 13:55:00
9:15 AM,12.2,-0.4,57,30.29,10.0,NE,11.5,17.3,N/A,,Clear,50,2013-03-17 14:15:00
9:35 AM,14.0,1.4,57,30.30,10.0,NE,8.1,-,N/A,,Clear,40,2013-03-17 14:35:00
9:55 AM,15.8,1.4,53,30.31,10.0,NNE,4.6,-,N/A,,Clear,30,2013-03-17 14:55:00
10:15 AM,17.6,1.4,49,30.32,10.0,East,10.4,-,N/A,,Clear,80,2013-03-17 15:15:00
10:35 AM,17.6,1.4,49,30.32,10.0,ENE,12.7,-,N/A,,Clear,70,2013-03-17 15:35:00
10:55 AM,17.6,5.0,58,30.33,10.0,East,10.4,-,N/A,,Clear,90,2013-03-17 15:55:00
11:15 AM,17.6,5.0,58,30.33,10.0,East,12.7,-,N/A,,Clear,80,2013-03-17 16:15:00
11:35 AM,17.6,5.0,58,30.33,10.0,East,10.4,-,N/A,,Clear,80,2013-03-17 16:35:00
11:55 AM,17.6,6.8,63,30.33,10.0,ESE,8.1,-,N/A,,Clear,110,2013-03-17 16:55:00
12:15 PM,19.4,6.8,58,30.32,10.0,East,8.1,-,N/A,,Clear,100,2013-03-17 17:15:00
12:35 PM,19.4,8.6,63,30.31,10.0,ESE,6.9,-,N/A,,Clear,110,2013-03-17 17:35:00
12:55 PM,19.4,8.6,63,30.31,10.0,East,6.9,-,N/A,,Clear,100,2013-03-17 17:55:00
1:15 PM,19.4,6.8,58,30.30,10.0,East,8.1,-,N/A,,Clear,90,2013-03-17 18:15:00
1:35 PM,21.2,8.6,58,30.29,10.0,East,8.1,-,N/A,,Clear,80,2013-03-17 18:35:00
1:55 PM,21.2,8.6,58,30.28,10.0,ENE,6.9,-,N/A,,Clear,70,2013-03-17 18:55:00
2:15 PM,21.2,8.6,58,30.28,10.0,East,6.9,-,N/A,,Clear,80,2013-03-17 19:15:00
2:35 PM,21.2,10.4,63,30.27,10.0,East,8.1,-,N/A,,Clear,90,2013-03-17 19:35:00
2:55 PM,21.2,10.4,63,30.27,10.0,East,5.8,-,N/A,,Clear,100,2013-03-17 19:55:00
3:15 PM,23.0,12.2,63,30.27,10.0,East,6.9,-,N/A,,Clear,100,2013-03-17 20:15:00
3:35 PM,21.2,10.4,63,30.26,10.0,East,9.2,-,N/A,,Clear,80,2013-03-17 20:35:00
3:55 PM,21.2,10.4,63,30.24,10.0,East,10.4,-,N/A,,Clear,80,2013-03-17 20:55:00
4:15 PM,21.2,12.2,68,30.24,10.0,East,11.5,-,N/A,,Clear,80,2013-03-17 21:15:00
4:35 PM,21.2,15.8,80,30.23,10.0,East,9.2,-,N/A,,Clear,90,2013-03-17 21:35:00
4:55 PM,21.2,15.8,80,30.24,10.0,East,6.9,-,N/A,,Clear,100,2013-03-17 21:55:00
5:15 PM,21.2,14.0,74,30.23,10.0,East,9.2,-,N/A,,Clear,100,2013-03-17 22:15:00
5:35 PM,21.2,12.2,68,30.21,10.0,East,11.5,-,N/A,,Clear,80,2013-03-17 22:35:00
5:55 PM,21.2,14.0,74,30.21,10.0,East,9.2,-,N/A,,Clear,90,2013-03-17 22:55:00
6:15 PM,21.2,12.2,68,30.21,10.0,East,9.2,-,N/A,,Clear,90,2013-03-17 23:15:00
6:55 PM,19.4,12.2,74,30.18,10.0,ENE,8.1,-,N/A,,Clear,70,2013-03-17 23:55:00
7:15 PM,19.4,12.2,74,30.19,10.0,ENE,5.8,-,N/A,,Clear,70,2013-03-18 00:15:00
7:35 PM,19.4,12.2,74,30.18,10.0,East,4.6,-,N/A,,Clear,80,2013-03-18 00:35:00
7:55 PM,17.6,12.2,79,30.17,10.0,East,4.6,-,N/A,,Clear,90,2013-03-18 00:55:00
8:15 PM,17.6,12.2,79,30.17,10.0,ESE,6.9,-,N/A,,Clear,110,2013-03-18 01:15:00
8:35 PM,17.6,15.8,93,30.17,10.0,East,6.9,-,N/A,,Clear,100,2013-03-18 01:35:00
8:55 PM,17.6,14.0,86,30.17,10.0,East,8.1,-,N/A,,Clear,90,2013-03-18 01:55:00
9:15 PM,17.6,12.2,79,30.17,10.0,East,5.8,-,N/A,,Clear,80,2013-03-18 02:15:00
9:35 PM,17.6,12.2,79,30.17,10.0,ENE,5.8,-,N/A,,Clear,70,2013-03-18 02:35:00
9:55 PM,17.6,12.2,79,30.16,10.0,ENE,5.8,-,N/A,,Clear,70,2013-03-18 02:55:00
10:15 PM,15.8,14.0,93,30.15,10.0,NE,4.6,-,N/A,,Clear,50,2013-03-18 03:15:00
10:35 PM,15.8,12.2,86,30.15,10.0,Calm,Calm,-,N/A,,Clear,0,2013-03-18 03:35:00
10:55 PM,15.8,12.2,86,30.13,10.0,Calm,Calm,-,N/A,,Scattered Clouds,0,2013-03-18 03:55:00
11:15 PM,15.8,12.2,86,30.11,10.0,Calm,Calm,-,N/A,,Scattered Clouds,0,2013-03-18 04:15:00
11:35 PM,14.0,10.4,86,30.10,10.0,NNE,3.5,-,N/A,,Partly Cloudy,20,2013-03-18 04:35:00
11:55 PM,15.8,12.2,86,30.09,10.0,Calm,Calm,-,N/A,,Clear,0,2013-03-18 04:55:00